createdAt,value
2022-08-21T00:00:03.952Z,19.8
2022-08-21T00:20:03.459Z,19.7
2022-08-21T00:40:03.891Z,19.6
2022-08-21T01:00:03.662Z,19.5
2022-08-21T01:20:03.595Z,19.5
2022-08-21T01:40:02.300Z,19.4
2022-08-21T02:00:02.683Z,19.2
2022-08-21T02:20:02.264Z,19.2
2022-08-21T02:40:02.662Z,19.1
2022-08-21T03:00:03.281Z,18.9
2022-08-21T03:20:02.836Z,18.8
2022-08-21T03:40:02.195Z,18.6
2022-08-21T04:00:02.723Z,18.5
2022-08-21T04:20:02.422Z,18.4
2022-08-21T04:40:02.918Z,18.2
2022-08-21T05:00:02.387Z,18.1
2022-08-21T05:20:03.521Z,18
2022-08-21T05:40:05.582Z,18
2022-08-21T06:00:03.934Z,17.9
2022-08-21T06:20:03.554Z,18
2022-08-21T06:40:04.257Z,18.1
2022-08-21T07:00:04.021Z,18.4
2022-08-21T07:20:03.629Z,18.6
2022-08-21T07:40:03.537Z,19.2
2022-08-21T08:00:04.471Z,19.9
2022-08-21T08:20:03.878Z,20.2
2022-08-21T08:40:04.675Z,20.4
2022-08-21T09:00:03.456Z,21.8
2022-08-21T09:20:03.504Z,22.2
2022-08-21T09:40:04.658Z,22.2
2022-08-21T10:00:03.677Z,22.4
2022-08-21T10:20:04.027Z,22.6
2022-08-21T11:20:04.613Z,23.8
2022-08-21T11:40:03.020Z,24.8
2022-08-21T12:00:04.058Z,24.8
2022-08-21T12:20:03.394Z,25
2022-08-21T12:40:04.550Z,25.2
2022-08-21T13:00:03.894Z,25.1
2022-08-21T13:20:03.042Z,24.7
2022-08-21T13:40:04.017Z,24.7
2022-08-21T14:00:03.849Z,24.5
2022-08-21T14:20:04.531Z,24.4
2022-08-21T14:40:04.475Z,24.3
2022-08-21T15:00:03.689Z,24.3
2022-08-21T15:20:03.827Z,24.1
2022-08-21T15:40:03.594Z,23.9
2022-08-21T16:00:03.853Z,23.9
2022-08-21T16:20:03.888Z,23.7
2022-08-21T16:40:04.023Z,23.2
2022-08-21T17:00:02.754Z,22.9
2022-08-21T17:20:04.015Z,22.2
2022-08-21T17:40:04.917Z,21.7
2022-08-21T18:00:03.509Z,21.1
2022-08-21T18:20:02.629Z,20.5
2022-08-21T18:40:03.998Z,19.9
2022-08-21T19:00:03.584Z,19.3
2022-08-21T19:20:04.109Z,19
2022-08-21T19:40:03.603Z,18.8
2022-08-21T20:00:03.988Z,18.4
2022-08-21T20:20:04.452Z,18.1
2022-08-21T20:40:03.965Z,17.5
2022-08-21T21:00:04.006Z,17.2
2022-08-21T21:20:02.440Z,17
2022-08-21T21:40:04.060Z,16.8
2022-08-21T22:00:04.440Z,16.6
2022-08-21T22:20:03.581Z,16.5
2022-08-21T22:40:03.935Z,16.4
2022-08-21T23:00:03.706Z,16.2
2022-08-21T23:20:03.202Z,15.8
2022-08-21T23:40:03.408Z,15.7
